LGIR

Heraklion International Nikos Kazantzakis Airport

Heraklion, Greece
TAF LGIR 181700Z 1818/1918 18005KT 9999 SCT025 BECMG 1818/1820 19015KT TEMPO 1900/1915 BKN070
Issued Valid From Valid To
Jan-18 @ 17:00 UTC
(3 hours ago)
Jan-18 @ 18:00 UTC
(2 hours ago)
Jan-19 @ 18:00 UTC
(in 22 hours)
Jan-18 @ 18:00 to Jan-19 @ 18:00
TAF LGIR 181700Z 1818/1918 18005KT 9999 SCT025
Wind Visibility Clouds
180° at 5 knots 10,000+ meters
  • Scattered at 2,500' AGL
Becoming Jan-18 @ 18:00 to Jan-19 @ 18:00
BECMG 1818/1820 19015KT
Wind Visibility Clouds
190° at 15 knots 10,000+ meters
  • Scattered at 2,500' AGL
Temporary Jan-19 @ 00:00 to Jan-19 @ 15:00
TEMPO 1900/1915 BKN070
Clouds
  • Broken at 7,000' AGL
TAF LGIR 181700Z 1818/1918 18005KT 9999 SCT025 BECMG 1818/1820 19015KT TEMPO 1900/1915 BKN070
Issued Jan-18 @ 17:00 UTC
(3 hours ago)
Valid From Jan-18 @ 18:00 UTC
(2 hours ago)
Valid To Jan-19 @ 18:00 UTC
(in 22 hours)
Jan-18 @ 18:00 - Jan-19 @ 18:00
Wind Visibility
180° at 5 knots 10,000+ meters
Clouds
  • Scattered at 2,500' AGL
Becoming Jan-18 @ 18:00 - Jan-19 @ 18:00
Wind Visibility
190° at 15 knots 10,000+ meters
Clouds
  • Scattered at 2,500' AGL
Temporary Jan-19 @ 00:00 - Jan-19 @ 15:00
Clouds
  • Broken at 7,000' AGL